sensor_id;sensor_type;location;lat;lon;timestamp;temperature;humidity
5009;DHT22;2523;51.058;6.922;2022-12-19T00:00:27;0.20;99.90
5009;DHT22;2523;51.058;6.922;2022-12-19T00:02:52;0.20;99.90
5009;DHT22;2523;51.058;6.922;2022-12-19T00:05:18;0.20;99.90
5009;DHT22;2523;51.058;6.922;2022-12-19T00:07:43;0.20;99.90
5009;DHT22;2523;51.058;6.922;2022-12-19T00:10:12;0.20;99.90
5009;DHT22;2523;51.058;6.922;2022-12-19T00:12:37;0.30;99.90
5009;DHT22;2523;51.058;6.922;2022-12-19T00:15:03;0.30;99.90
5009;DHT22;2523;51.058;6.922;2022-12-19T00:17:28;0.30;99.90
5009;DHT22;2523;51.058;6.922;2022-12-19T00:19:54;0.30;99.90
5009;DHT22;2523;51.058;6.922;2022-12-19T00:22:19;0.30;99.90
5009;DHT22;2523;51.058;6.922;2022-12-19T00:24:46;0.30;99.90
5009;DHT22;2523;51.058;6.922;2022-12-19T00:27:12;0.30;99.90
5009;DHT22;2523;51.058;6.922;2022-12-19T00:29:37;0.30;99.90
5009;DHT22;2523;51.058;6.922;2022-12-19T00:32:03;0.30;99.90
5009;DHT22;2523;51.058;6.922;2022-12-19T00:34:28;0.30;99.90
5009;DHT22;2523;51.058;6.922;2022-12-19T00:36:54;0.40;99.90
5009;DHT22;2523;51.058;6.922;2022-12-19T00:39:20;0.40;99.90
5009;DHT22;2523;51.058;6.922;2022-12-19T00:41:46;0.40;99.90
5009;DHT22;2523;51.058;6.922;2022-12-19T00:44:13;0.40;99.90
5009;DHT22;2523;51.058;6.922;2022-12-19T00:46:38;0.40;99.90
5009;DHT22;2523;51.058;6.922;2022-12-19T00:49:05;0.40;99.90
5009;DHT22;2523;51.058;6.922;2022-12-19T00:51:33;0.40;99.90
5009;DHT22;2523;51.058;6.922;2022-12-19T00:53:59;0.40;99.90
5009;DHT22;2523;51.058;6.922;2022-12-19T00:56:27;0.40;99.90
5009;DHT22;2523;51.058;6.922;2022-12-19T00:58:54;0.50;99.90
5009;DHT22;2523;51.058;6.922;2022-12-19T01:01:28;0.50;99.90
5009;DHT22;2523;51.058;6.922;2022-12-19T01:03:57;0.50;99.90
5009;DHT22;2523;51.058;6.922;2022-12-19T01:06:23;0.50;99.90
5009;DHT22;2523;51.058;6.922;2022-12-19T01:08:48;0.50;99.90
5009;DHT22;2523;51.058;6.922;2022-12-19T01:11:14;0.50;99.90
5009;DHT22;2523;51.058;6.922;2022-12-19T01:13:40;0.60;99.90
5009;DHT22;2523;51.058;6.922;2022-12-19T01:16:09;0.60;99.90
5009;DHT22;2523;51.058;6.922;2022-12-19T01:18:35;0.60;99.90
5009;DHT22;2523;51.058;6.922;2022-12-19T01:21:04;0.60;99.90
5009;DHT22;2523;51.058;6.922;2022-12-19T01:23:30;0.60;99.90
5009;DHT22;2523;51.058;6.922;2022-12-19T01:25:56;0.70;99.90
5009;DHT22;2523;51.058;6.922;2022-12-19T01:28:22;0.70;99.90
5009;DHT22;2523;51.058;6.922;2022-12-19T01:30:48;0.70;99.90
5009;DHT22;2523;51.058;6.922;2022-12-19T01:33:16;0.70;99.90
5009;DHT22;2523;51.058;6.922;2022-12-19T01:35:44;0.70;99.90
5009;DHT22;2523;51.058;6.922;2022-12-19T01:38:15;0.80;99.90
5009;DHT22;2523;51.058;6.922;2022-12-19T01:40:54;0.80;99.90
5009;DHT22;2523;51.058;6.922;2022-12-19T01:43:21;0.80;99.90
5009;DHT22;2523;51.058;6.922;2022-12-19T01:45:50;0.80;99.90
5009;DHT22;2523;51.058;6.922;2022-12-19T01:48:23;0.90;99.90
5009;DHT22;2523;51.058;6.922;2022-12-19T01:53:22;0.90;99.90
5009;DHT22;2523;51.058;6.922;2022-12-19T01:55:48;0.90;99.90
5009;DHT22;2523;51.058;6.922;2022-12-19T01:58:15;1.00;99.90
5009;DHT22;2523;51.058;6.922;2022-12-19T02:00:42;1.00;99.90
5009;DHT22;2523;51.058;6.922;2022-12-19T02:03:28;1.00;99.90
5009;DHT22;2523;51.058;6.922;2022-12-19T02:05:54;1.00;99.90
5009;DHT22;2523;51.058;6.922;2022-12-19T02:08:20;1.10;99.90
5009;DHT22;2523;51.058;6.922;2022-12-19T02:10:46;1.10;99.90
5009;DHT22;2523;51.058;6.922;2022-12-19T02:13:12;1.10;99.90
5009;DHT22;2523;51.058;6.922;2022-12-19T02:15:46;1.10;99.90
5009;DHT22;2523;51.058;6.922;2022-12-19T02:21:20;1.20;99.90
5009;DHT22;2523;51.058;6.922;2022-12-19T02:24:02;1.30;99.90
5009;DHT22;2523;51.058;6.922;2022-12-19T02:26:41;1.30;99.90
5009;DHT22;2523;51.058;6.922;2022-12-19T02:29:31;1.30;99.90
5009;DHT22;2523;51.058;6.922;2022-12-19T02:32:09;1.40;99.90
5009;DHT22;2523;51.058;6.922;2022-12-19T02:34:43;1.40;99.90
5009;DHT22;2523;51.058;6.922;2022-12-19T02:37:16;1.40;99.90
5009;DHT22;2523;51.058;6.922;2022-12-19T02:40:08;1.40;99.90
5009;DHT22;2523;51.058;6.922;2022-12-19T02:42:38;1.40;99.90
5009;DHT22;2523;51.058;6.922;2022-12-19T02:45:09;1.40;99.90
5009;DHT22;2523;51.058;6.922;2022-12-19T02:47:36;1.40;99.90
5009;DHT22;2523;51.058;6.922;2022-12-19T02:50:02;1.40;99.90
5009;DHT22;2523;51.058;6.922;2022-12-19T02:55:04;1.40;99.90
5009;DHT22;2523;51.058;6.922;2022-12-19T03:00:22;1.40;99.90
5009;DHT22;2523;51.058;6.922;2022-12-19T03:08:05;1.40;99.90
5009;DHT22;2523;51.058;6.922;2022-12-19T03:10:42;1.50;99.90
5009;DHT22;2523;51.058;6.922;2022-12-19T03:13:12;1.40;99.90
5009;DHT22;2523;51.058;6.922;2022-12-19T03:15:39;1.50;99.90
5009;DHT22;2523;51.058;6.922;2022-12-19T03:18:06;1.50;99.90
5009;DHT22;2523;51.058;6.922;2022-12-19T03:23:30;1.50;99.90
5009;DHT22;2523;51.058;6.922;2022-12-19T03:26:04;1.50;99.90
5009;DHT22;2523;51.058;6.922;2022-12-19T03:28:53;1.50;99.90
5009;DHT22;2523;51.058;6.922;2022-12-19T03:31:22;1.50;99.90
5009;DHT22;2523;51.058;6.922;2022-12-19T03:33:55;1.50;99.90
5009;DHT22;2523;51.058;6.922;2022-12-19T03:36:26;1.50;99.90
5009;DHT22;2523;51.058;6.922;2022-12-19T03:38:53;1.50;99.90
5009;DHT22;2523;51.058;6.922;2022-12-19T03:41:21;1.50;99.90
5009;DHT22;2523;51.058;6.922;2022-12-19T03:44:10;1.50;99.90
5009;DHT22;2523;51.058;6.922;2022-12-19T03:46:43;1.50;99.90
5009;DHT22;2523;51.058;6.922;2022-12-19T03:49:11;1.50;99.90
5009;DHT22;2523;51.058;6.922;2022-12-19T03:51:47;1.50;99.90
5009;DHT22;2523;51.058;6.922;2022-12-19T03:54:24;1.50;99.90
5009;DHT22;2523;51.058;6.922;2022-12-19T03:56:57;1.50;99.90
5009;DHT22;2523;51.058;6.922;2022-12-19T04:02:03;1.50;99.90
5009;DHT22;2523;51.058;6.922;2022-12-19T04:04:30;1.50;99.90
5009;DHT22;2523;51.058;6.922;2022-12-19T04:07:00;1.50;99.90
5009;DHT22;2523;51.058;6.922;2022-12-19T04:09:27;1.50;99.90
5009;DHT22;2523;51.058;6.922;2022-12-19T04:11:58;1.50;99.90
5009;DHT22;2523;51.058;6.922;2022-12-19T04:14:32;1.50;99.90
5009;DHT22;2523;51.058;6.922;2022-12-19T04:17:11;1.50;99.90
5009;DHT22;2523;51.058;6.922;2022-12-19T04:19:48;1.60;99.90
5009;DHT22;2523;51.058;6.922;2022-12-19T04:22:22;1.60;99.90
5009;DHT22;2523;51.058;6.922;2022-12-19T04:24:51;1.60;99.90
5009;DHT22;2523;51.058;6.922;2022-12-19T04:27:19;1.60;99.90
5009;DHT22;2523;51.058;6.922;2022-12-19T04:29:46;1.70;99.90
5009;DHT22;2523;51.058;6.922;2022-12-19T04:32:13;1.70;99.90
5009;DHT22;2523;51.058;6.922;2022-12-19T04:34:38;1.70;99.90
5009;DHT22;2523;51.058;6.922;2022-12-19T04:37:04;1.70;99.90
5009;DHT22;2523;51.058;6.922;2022-12-19T04:39:32;1.70;99.90
5009;DHT22;2523;51.058;6.922;2022-12-19T04:41:57;1.70;99.90
5009;DHT22;2523;51.058;6.922;2022-12-19T04:44:23;1.80;99.90
5009;DHT22;2523;51.058;6.922;2022-12-19T04:46:48;1.80;99.90
5009;DHT22;2523;51.058;6.922;2022-12-19T04:49:14;1.80;99.90
5009;DHT22;2523;51.058;6.922;2022-12-19T04:51:39;1.80;99.90
5009;DHT22;2523;51.058;6.922;2022-12-19T04:54:05;1.80;99.90
5009;DHT22;2523;51.058;6.922;2022-12-19T04:56:31;1.80;99.90
5009;DHT22;2523;51.058;6.922;2022-12-19T04:58:57;1.80;99.90
5009;DHT22;2523;51.058;6.922;2022-12-19T05:01:23;1.80;99.90
5009;DHT22;2523;51.058;6.922;2022-12-19T05:03:49;1.90;99.90
5009;DHT22;2523;51.058;6.922;2022-12-19T05:06:16;1.90;99.90
5009;DHT22;2523;51.058;6.922;2022-12-19T05:08:42;1.80;99.90
5009;DHT22;2523;51.058;6.922;2022-12-19T05:11:10;1.90;99.90
5009;DHT22;2523;51.058;6.922;2022-12-19T05:13:35;1.90;99.90
5009;DHT22;2523;51.058;6.922;2022-12-19T05:16:03;1.90;99.90
5009;DHT22;2523;51.058;6.922;2022-12-19T05:18:29;1.90;99.90
5009;DHT22;2523;51.058;6.922;2022-12-19T05:20:55;2.00;99.90
5009;DHT22;2523;51.058;6.922;2022-12-19T05:23:21;2.00;99.90
5009;DHT22;2523;51.058;6.922;2022-12-19T05:25:47;2.00;99.90
5009;DHT22;2523;51.058;6.922;2022-12-19T05:28:13;2.00;99.90
5009;DHT22;2523;51.058;6.922;2022-12-19T05:30:39;2.00;99.90
5009;DHT22;2523;51.058;6.922;2022-12-19T05:33:05;2.00;99.90
5009;DHT22;2523;51.058;6.922;2022-12-19T05:35:30;2.00;99.90
5009;DHT22;2523;51.058;6.922;2022-12-19T05:37:56;2.00;99.90
5009;DHT22;2523;51.058;6.922;2022-12-19T05:40:21;2.10;99.90
5009;DHT22;2523;51.058;6.922;2022-12-19T05:42:47;2.10;99.90
5009;DHT22;2523;51.058;6.922;2022-12-19T05:45:12;2.10;99.90
5009;DHT22;2523;51.058;6.922;2022-12-19T05:47:38;2.20;99.90
5009;DHT22;2523;51.058;6.922;2022-12-19T05:50:04;2.20;99.90
5009;DHT22;2523;51.058;6.922;2022-12-19T05:52:30;2.20;99.90
5009;DHT22;2523;51.058;6.922;2022-12-19T05:54:55;2.20;99.90
5009;DHT22;2523;51.058;6.922;2022-12-19T05:57:21;2.30;99.90
5009;DHT22;2523;51.058;6.922;2022-12-19T05:59:46;2.30;99.90
5009;DHT22;2523;51.058;6.922;2022-12-19T06:02:12;2.30;99.90
5009;DHT22;2523;51.058;6.922;2022-12-19T06:04:37;2.30;99.90
5009;DHT22;2523;51.058;6.922;2022-12-19T06:07:03;2.30;99.90
5009;DHT22;2523;51.058;6.922;2022-12-19T06:09:29;2.40;99.90
5009;DHT22;2523;51.058;6.922;2022-12-19T06:11:55;2.40;99.90
5009;DHT22;2523;51.058;6.922;2022-12-19T06:14:20;2.40;99.90
5009;DHT22;2523;51.058;6.922;2022-12-19T06:16:46;2.50;99.90
5009;DHT22;2523;51.058;6.922;2022-12-19T06:19:11;2.50;99.90
5009;DHT22;2523;51.058;6.922;2022-12-19T06:21:37;2.50;99.90
5009;DHT22;2523;51.058;6.922;2022-12-19T06:24:03;2.50;99.90
5009;DHT22;2523;51.058;6.922;2022-12-19T06:26:28;2.60;99.90
5009;DHT22;2523;51.058;6.922;2022-12-19T06:28:55;2.60;99.90
5009;DHT22;2523;51.058;6.922;2022-12-19T06:31:22;2.70;99.90
5009;DHT22;2523;51.058;6.922;2022-12-19T06:33:48;2.70;99.90
5009;DHT22;2523;51.058;6.922;2022-12-19T06:36:27;2.80;99.90
5009;DHT22;2523;51.058;6.922;2022-12-19T06:38:53;2.80;99.90
5009;DHT22;2523;51.058;6.922;2022-12-19T06:41:20;2.80;99.90
5009;DHT22;2523;51.058;6.922;2022-12-19T06:44:07;2.80;99.90
5009;DHT22;2523;51.058;6.922;2022-12-19T06:46:33;2.80;99.90
5009;DHT22;2523;51.058;6.922;2022-12-19T06:48:59;2.90;99.90
5009;DHT22;2523;51.058;6.922;2022-12-19T06:51:24;2.90;99.90
5009;DHT22;2523;51.058;6.922;2022-12-19T06:53:51;2.90;99.90
5009;DHT22;2523;51.058;6.922;2022-12-19T06:56:17;2.90;99.90
5009;DHT22;2523;51.058;6.922;2022-12-19T06:58:42;2.90;99.90
5009;DHT22;2523;51.058;6.922;2022-12-19T07:01:18;2.90;99.90
5009;DHT22;2523;51.058;6.922;2022-12-19T07:03:45;3.00;99.90
5009;DHT22;2523;51.058;6.922;2022-12-19T07:06:11;3.00;99.90
5009;DHT22;2523;51.058;6.922;2022-12-19T07:08:36;3.00;99.90
5009;DHT22;2523;51.058;6.922;2022-12-19T07:11:02;3.00;99.90
5009;DHT22;2523;51.058;6.922;2022-12-19T07:13:27;3.00;99.90
5009;DHT22;2523;51.058;6.922;2022-12-19T07:15:56;3.00;99.90
5009;DHT22;2523;51.058;6.922;2022-12-19T07:18:22;3.00;99.90
5009;DHT22;2523;51.058;6.922;2022-12-19T07:20:48;3.00;99.90
5009;DHT22;2523;51.058;6.922;2022-12-19T07:23:17;3.00;99.90
5009;DHT22;2523;51.058;6.922;2022-12-19T07:25:42;3.00;99.90
5009;DHT22;2523;51.058;6.922;2022-12-19T07:28:08;3.00;99.90
5009;DHT22;2523;51.058;6.922;2022-12-19T07:30:34;3.00;99.90
5009;DHT22;2523;51.058;6.922;2022-12-19T07:32:59;3.00;99.90
5009;DHT22;2523;51.058;6.922;2022-12-19T07:35:25;3.10;99.90
5009;DHT22;2523;51.058;6.922;2022-12-19T07:37:51;3.10;99.90
5009;DHT22;2523;51.058;6.922;2022-12-19T07:40:16;3.10;99.90
5009;DHT22;2523;51.058;6.922;2022-12-19T07:42:43;3.10;99.90
5009;DHT22;2523;51.058;6.922;2022-12-19T07:45:09;3.10;99.90
5009;DHT22;2523;51.058;6.922;2022-12-19T07:47:35;3.20;99.90
5009;DHT22;2523;51.058;6.922;2022-12-19T07:50:00;3.10;99.90
5009;DHT22;2523;51.058;6.922;2022-12-19T07:52:26;3.20;99.90
5009;DHT22;2523;51.058;6.922;2022-12-19T07:54:52;3.20;99.90
5009;DHT22;2523;51.058;6.922;2022-12-19T07:57:17;3.20;99.90
5009;DHT22;2523;51.058;6.922;2022-12-19T07:59:43;3.20;99.90
5009;DHT22;2523;51.058;6.922;2022-12-19T08:02:09;3.30;99.90
5009;DHT22;2523;51.058;6.922;2022-12-19T08:04:34;3.30;99.90
5009;DHT22;2523;51.058;6.922;2022-12-19T08:07:00;3.30;99.90
5009;DHT22;2523;51.058;6.922;2022-12-19T08:09:27;3.30;99.90
5009;DHT22;2523;51.058;6.922;2022-12-19T08:11:53;3.40;99.90
5009;DHT22;2523;51.058;6.922;2022-12-19T08:14:19;3.40;99.90
5009;DHT22;2523;51.058;6.922;2022-12-19T08:16:45;3.40;99.90
5009;DHT22;2523;51.058;6.922;2022-12-19T08:19:10;3.40;99.90
5009;DHT22;2523;51.058;6.922;2022-12-19T08:21:36;3.40;99.90
5009;DHT22;2523;51.058;6.922;2022-12-19T08:24:02;3.40;99.90
5009;DHT22;2523;51.058;6.922;2022-12-19T08:26:28;3.50;99.90
5009;DHT22;2523;51.058;6.922;2022-12-19T08:28:55;3.50;99.90
5009;DHT22;2523;51.058;6.922;2022-12-19T08:31:22;3.60;99.90
5009;DHT22;2523;51.058;6.922;2022-12-19T08:33:50;3.60;99.90
5009;DHT22;2523;51.058;6.922;2022-12-19T08:36:16;3.60;99.90
5009;DHT22;2523;51.058;6.922;2022-12-19T08:38:46;3.70;99.90
5009;DHT22;2523;51.058;6.922;2022-12-19T08:41:14;3.70;99.90
5009;DHT22;2523;51.058;6.922;2022-12-19T08:43:40;3.80;99.90
5009;DHT22;2523;51.058;6.922;2022-12-19T08:46:06;3.70;99.90
5009;DHT22;2523;51.058;6.922;2022-12-19T08:48:32;3.80;99.90
5009;DHT22;2523;51.058;6.922;2022-12-19T08:51:04;3.80;99.90
5009;DHT22;2523;51.058;6.922;2022-12-19T08:53:32;3.80;99.90
5009;DHT22;2523;51.058;6.922;2022-12-19T08:56:02;3.80;99.90
5009;DHT22;2523;51.058;6.922;2022-12-19T08:58:28;3.90;99.90
5009;DHT22;2523;51.058;6.922;2022-12-19T09:01:02;3.90;99.90
5009;DHT22;2523;51.058;6.922;2022-12-19T09:03:29;3.90;99.90
5009;DHT22;2523;51.058;6.922;2022-12-19T09:06:00;3.90;99.90
5009;DHT22;2523;51.058;6.922;2022-12-19T09:08:26;4.00;99.90
5009;DHT22;2523;51.058;6.922;2022-12-19T09:11:15;4.00;99.90
5009;DHT22;2523;51.058;6.922;2022-12-19T09:13:41;4.00;99.90
5009;DHT22;2523;51.058;6.922;2022-12-19T09:16:10;4.00;99.90
5009;DHT22;2523;51.058;6.922;2022-12-19T09:18:37;4.00;99.90
5009;DHT22;2523;51.058;6.922;2022-12-19T09:21:03;4.10;99.90
5009;DHT22;2523;51.058;6.922;2022-12-19T09:23:29;4.10;99.90
5009;DHT22;2523;51.058;6.922;2022-12-19T09:26:00;4.10;99.90
5009;DHT22;2523;51.058;6.922;2022-12-19T09:28:26;4.10;99.90
5009;DHT22;2523;51.058;6.922;2022-12-19T09:30:57;4.20;99.90
5009;DHT22;2523;51.058;6.922;2022-12-19T09:33:22;4.20;99.90
5009;DHT22;2523;51.058;6.922;2022-12-19T09:35:49;4.20;99.90
5009;DHT22;2523;51.058;6.922;2022-12-19T09:38:15;4.20;99.90
5009;DHT22;2523;51.058;6.922;2022-12-19T09:43:49;4.30;99.90
5009;DHT22;2523;51.058;6.922;2022-12-19T09:46:25;4.30;99.90
5009;DHT22;2523;51.058;6.922;2022-12-19T09:48:53;4.30;99.90
5009;DHT22;2523;51.058;6.922;2022-12-19T09:54:21;4.30;99.90
5009;DHT22;2523;51.058;6.922;2022-12-19T09:56:53;4.40;99.90
5009;DHT22;2523;51.058;6.922;2022-12-19T09:59:24;4.40;99.90
5009;DHT22;2523;51.058;6.922;2022-12-19T10:04:49;4.40;99.90
5009;DHT22;2523;51.058;6.922;2022-12-19T10:07:17;4.40;99.90
5009;DHT22;2523;51.058;6.922;2022-12-19T10:09:44;4.50;99.90
5009;DHT22;2523;51.058;6.922;2022-12-19T10:17:37;4.50;99.90
5009;DHT22;2523;51.058;6.922;2022-12-19T10:20:17;4.50;99.90
5009;DHT22;2523;51.058;6.922;2022-12-19T10:25:38;4.50;99.90
5009;DHT22;2523;51.058;6.922;2022-12-19T10:31:32;4.60;99.90
5009;DHT22;2523;51.058;6.922;2022-12-19T10:34:16;4.60;99.90
5009;DHT22;2523;51.058;6.922;2022-12-19T10:36:54;4.60;99.90
5009;DHT22;2523;51.058;6.922;2022-12-19T10:41:59;4.60;99.90
5009;DHT22;2523;51.058;6.922;2022-12-19T10:44:29;4.60;99.90
5009;DHT22;2523;51.058;6.922;2022-12-19T10:46:56;4.60;99.90
5009;DHT22;2523;51.058;6.922;2022-12-19T10:49:25;4.60;99.90
5009;DHT22;2523;51.058;6.922;2022-12-19T10:54:18;4.60;99.90
5009;DHT22;2523;51.058;6.922;2022-12-19T10:56:44;4.60;99.90
5009;DHT22;2523;51.058;6.922;2022-12-19T10:59:18;4.70;99.90
5009;DHT22;2523;51.058;6.922;2022-12-19T11:01:44;4.70;99.90
5009;DHT22;2523;51.058;6.922;2022-12-19T11:04:28;4.70;99.90
5009;DHT22;2523;51.058;6.922;2022-12-19T11:09:40;4.70;99.90
5009;DHT22;2523;51.058;6.922;2022-12-19T11:14:33;4.60;99.90
5009;DHT22;2523;51.058;6.922;2022-12-19T11:16:59;4.70;99.90
5009;DHT22;2523;51.058;6.922;2022-12-19T11:22:13;4.70;99.90
5009;DHT22;2523;51.058;6.922;2022-12-19T11:24:43;4.70;99.90
5009;DHT22;2523;51.058;6.922;2022-12-19T11:27:40;4.70;99.90
5009;DHT22;2523;51.058;6.922;2022-12-19T11:30:21;4.70;99.90
5009;DHT22;2523;51.058;6.922;2022-12-19T11:32:49;4.80;99.90
5009;DHT22;2523;51.058;6.922;2022-12-19T11:35:30;4.80;99.90
5009;DHT22;2523;51.058;6.922;2022-12-19T11:38:00;4.90;99.90
5009;DHT22;2523;51.058;6.922;2022-12-19T11:40:38;4.90;99.90
5009;DHT22;2523;51.058;6.922;2022-12-19T11:43:28;4.90;99.90
5009;DHT22;2523;51.058;6.922;2022-12-19T11:46:16;4.90;99.90
5009;DHT22;2523;51.058;6.922;2022-12-19T11:48:54;5.00;99.90
5009;DHT22;2523;51.058;6.922;2022-12-19T11:51:34;5.00;99.90
5009;DHT22;2523;51.058;6.922;2022-12-19T11:54:28;5.00;99.90
5009;DHT22;2523;51.058;6.922;2022-12-19T11:56:56;5.10;99.90
5009;DHT22;2523;51.058;6.922;2022-12-19T11:59:36;5.10;99.90
5009;DHT22;2523;51.058;6.922;2022-12-19T12:02:26;5.10;99.90
5009;DHT22;2523;51.058;6.922;2022-12-19T12:05:07;5.10;99.90
5009;DHT22;2523;51.058;6.922;2022-12-19T12:07:35;5.20;99.90
5009;DHT22;2523;51.058;6.922;2022-12-19T12:10:20;5.20;99.90
5009;DHT22;2523;51.058;6.922;2022-12-19T12:13:01;5.20;99.90
5009;DHT22;2523;51.058;6.922;2022-12-19T12:18:17;5.20;99.90
5009;DHT22;2523;51.058;6.922;2022-12-19T12:21:36;5.20;99.90
5009;DHT22;2523;51.058;6.922;2022-12-19T12:29:12;5.30;99.90
5009;DHT22;2523;51.058;6.922;2022-12-19T12:31:48;5.30;99.90
5009;DHT22;2523;51.058;6.922;2022-12-19T12:34:40;5.30;99.90
5009;DHT22;2523;51.058;6.922;2022-12-19T12:37:17;5.30;99.90
5009;DHT22;2523;51.058;6.922;2022-12-19T12:40:26;5.30;99.90
5009;DHT22;2523;51.058;6.922;2022-12-19T12:43:19;5.30;99.90
5009;DHT22;2523;51.058;6.922;2022-12-19T12:45:53;5.40;99.90
5009;DHT22;2523;51.058;6.922;2022-12-19T12:48:33;5.50;99.90
5009;DHT22;2523;51.058;6.922;2022-12-19T12:51:00;5.50;99.90
5009;DHT22;2523;51.058;6.922;2022-12-19T12:53:38;5.50;99.90
5009;DHT22;2523;51.058;6.922;2022-12-19T12:56:06;5.50;99.90
5009;DHT22;2523;51.058;6.922;2022-12-19T13:03:58;5.40;99.90
5009;DHT22;2523;51.058;6.922;2022-12-19T13:09:27;5.50;99.90
5009;DHT22;2523;51.058;6.922;2022-12-19T13:14:47;5.60;99.90
5009;DHT22;2523;51.058;6.922;2022-12-19T13:17:59;5.60;99.90
5009;DHT22;2523;51.058;6.922;2022-12-19T13:22:38;5.60;99.90
5009;DHT22;2523;51.058;6.922;2022-12-19T13:30:33;5.80;99.90
5009;DHT22;2523;51.058;6.922;2022-12-19T13:38:22;5.80;99.90
5009;DHT22;2523;51.058;6.922;2022-12-19T13:41:03;5.70;99.90
5009;DHT22;2523;51.058;6.922;2022-12-19T13:43:56;5.70;99.90
5009;DHT22;2523;51.058;6.922;2022-12-19T13:46:39;5.80;99.90
5009;DHT22;2523;51.058;6.922;2022-12-19T13:49:16;5.70;99.90
5009;DHT22;2523;51.058;6.922;2022-12-19T13:51:49;5.80;99.90
5009;DHT22;2523;51.058;6.922;2022-12-19T13:54:23;5.70;99.90
5009;DHT22;2523;51.058;6.922;2022-12-19T13:56:51;5.70;99.90
5009;DHT22;2523;51.058;6.922;2022-12-19T13:59:17;5.70;99.90
5009;DHT22;2523;51.058;6.922;2022-12-19T14:01:43;5.70;99.90
5009;DHT22;2523;51.058;6.922;2022-12-19T14:06:53;5.70;99.90
5009;DHT22;2523;51.058;6.922;2022-12-19T14:09:31;5.70;99.90
5009;DHT22;2523;51.058;6.922;2022-12-19T14:12:01;5.70;99.90
5009;DHT22;2523;51.058;6.922;2022-12-19T14:14:27;5.70;99.90
5009;DHT22;2523;51.058;6.922;2022-12-19T14:17:20;5.60;99.90
5009;DHT22;2523;51.058;6.922;2022-12-19T14:19:48;5.60;99.90
5009;DHT22;2523;51.058;6.922;2022-12-19T14:25:12;5.60;99.90
5009;DHT22;2523;51.058;6.922;2022-12-19T14:27:41;5.50;99.90
5009;DHT22;2523;51.058;6.922;2022-12-19T14:30:19;5.50;99.90
5009;DHT22;2523;51.058;6.922;2022-12-19T14:32:48;5.50;99.90
5009;DHT22;2523;51.058;6.922;2022-12-19T14:35:18;5.50;99.90
5009;DHT22;2523;51.058;6.922;2022-12-19T14:37:46;5.50;99.90
5009;DHT22;2523;51.058;6.922;2022-12-19T14:40:24;5.50;99.90
5009;DHT22;2523;51.058;6.922;2022-12-19T14:42:59;5.50;99.90
5009;DHT22;2523;51.058;6.922;2022-12-19T14:45:43;5.50;99.90
5009;DHT22;2523;51.058;6.922;2022-12-19T14:48:31;5.60;99.90
5009;DHT22;2523;51.058;6.922;2022-12-19T14:53:32;5.60;99.90
5009;DHT22;2523;51.058;6.922;2022-12-19T14:56:07;5.60;99.90
5009;DHT22;2523;51.058;6.922;2022-12-19T14:58:36;5.70;99.90
5009;DHT22;2523;51.058;6.922;2022-12-19T15:01:06;5.80;99.90
5009;DHT22;2523;51.058;6.922;2022-12-19T15:03:53;5.80;99.90
5009;DHT22;2523;51.058;6.922;2022-12-19T15:06:22;5.90;99.90
5009;DHT22;2523;51.058;6.922;2022-12-19T15:08:58;5.90;99.90
5009;DHT22;2523;51.058;6.922;2022-12-19T15:11:28;5.90;99.90
5009;DHT22;2523;51.058;6.922;2022-12-19T15:14:12;5.80;99.90
5009;DHT22;2523;51.058;6.922;2022-12-19T15:16:38;5.90;99.90
5009;DHT22;2523;51.058;6.922;2022-12-19T15:19:11;5.90;99.90
5009;DHT22;2523;51.058;6.922;2022-12-19T15:21:37;5.90;99.90
5009;DHT22;2523;51.058;6.922;2022-12-19T15:24:02;5.90;99.90
5009;DHT22;2523;51.058;6.922;2022-12-19T15:26:31;5.90;99.90
5009;DHT22;2523;51.058;6.922;2022-12-19T15:28:57;5.90;99.90
5009;DHT22;2523;51.058;6.922;2022-12-19T15:31:34;5.90;99.90
5009;DHT22;2523;51.058;6.922;2022-12-19T15:34:27;5.90;99.90
5009;DHT22;2523;51.058;6.922;2022-12-19T15:36:54;5.90;99.90
5009;DHT22;2523;51.058;6.922;2022-12-19T15:39:21;6.00;99.90
5009;DHT22;2523;51.058;6.922;2022-12-19T15:41:49;6.00;99.90
5009;DHT22;2523;51.058;6.922;2022-12-19T15:44:19;6.00;99.90
5009;DHT22;2523;51.058;6.922;2022-12-19T15:46:46;6.00;99.90
5009;DHT22;2523;51.058;6.922;2022-12-19T15:49:16;6.10;99.90
5009;DHT22;2523;51.058;6.922;2022-12-19T15:51:42;6.00;99.90
5009;DHT22;2523;51.058;6.922;2022-12-19T15:54:08;6.00;99.90
5009;DHT22;2523;51.058;6.922;2022-12-19T15:56:36;6.10;99.90
5009;DHT22;2523;51.058;6.922;2022-12-19T15:59:04;6.10;99.90
5009;DHT22;2523;51.058;6.922;2022-12-19T16:01:30;6.00;99.90
5009;DHT22;2523;51.058;6.922;2022-12-19T16:03:59;6.10;99.90
5009;DHT22;2523;51.058;6.922;2022-12-19T16:06:25;6.10;99.90
5009;DHT22;2523;51.058;6.922;2022-12-19T16:08:50;6.10;99.90
5009;DHT22;2523;51.058;6.922;2022-12-19T16:11:22;6.00;99.90
5009;DHT22;2523;51.058;6.922;2022-12-19T16:13:51;6.00;99.90
5009;DHT22;2523;51.058;6.922;2022-12-19T16:16:18;6.00;99.90
5009;DHT22;2523;51.058;6.922;2022-12-19T16:18:44;6.10;99.90
5009;DHT22;2523;51.058;6.922;2022-12-19T16:21:28;6.10;99.90
5009;DHT22;2523;51.058;6.922;2022-12-19T16:23:53;6.10;99.90
5009;DHT22;2523;51.058;6.922;2022-12-19T16:26:33;6.10;99.90
5009;DHT22;2523;51.058;6.922;2022-12-19T16:29:00;6.10;99.90
5009;DHT22;2523;51.058;6.922;2022-12-19T16:31:26;6.10;99.90
5009;DHT22;2523;51.058;6.922;2022-12-19T16:33:52;6.10;99.90
5009;DHT22;2523;51.058;6.922;2022-12-19T16:36:19;6.10;99.90
5009;DHT22;2523;51.058;6.922;2022-12-19T16:38:44;6.10;99.90
5009;DHT22;2523;51.058;6.922;2022-12-19T16:41:20;6.20;99.90
5009;DHT22;2523;51.058;6.922;2022-12-19T16:43:47;6.20;99.90
5009;DHT22;2523;51.058;6.922;2022-12-19T16:46:18;6.10;99.90
5009;DHT22;2523;51.058;6.922;2022-12-19T16:48:44;6.20;99.90
5009;DHT22;2523;51.058;6.922;2022-12-19T16:51:19;6.20;99.90
5009;DHT22;2523;51.058;6.922;2022-12-19T16:53:55;6.10;99.90
5009;DHT22;2523;51.058;6.922;2022-12-19T16:56:34;6.20;99.90
5009;DHT22;2523;51.058;6.922;2022-12-19T16:59:03;6.20;99.90
5009;DHT22;2523;51.058;6.922;2022-12-19T17:01:30;6.20;99.90
5009;DHT22;2523;51.058;6.922;2022-12-19T17:03:55;6.20;99.90
5009;DHT22;2523;51.058;6.922;2022-12-19T17:06:22;6.30;99.90
5009;DHT22;2523;51.058;6.922;2022-12-19T17:08:47;6.30;99.90
5009;DHT22;2523;51.058;6.922;2022-12-19T17:11:33;6.30;99.90
5009;DHT22;2523;51.058;6.922;2022-12-19T17:14:06;6.30;99.90
5009;DHT22;2523;51.058;6.922;2022-12-19T17:16:33;6.40;99.90
5009;DHT22;2523;51.058;6.922;2022-12-19T17:18:59;6.40;99.90
5009;DHT22;2523;51.058;6.922;2022-12-19T17:21:25;6.40;99.90
5009;DHT22;2523;51.058;6.922;2022-12-19T17:23:53;6.40;99.90
5009;DHT22;2523;51.058;6.922;2022-12-19T17:26:19;6.50;99.90
5009;DHT22;2523;51.058;6.922;2022-12-19T17:28:44;6.50;99.90
5009;DHT22;2523;51.058;6.922;2022-12-19T17:31:23;6.60;99.90
5009;DHT22;2523;51.058;6.922;2022-12-19T17:33:49;6.60;99.90
5009;DHT22;2523;51.058;6.922;2022-12-19T17:36:17;6.60;99.90
5009;DHT22;2523;51.058;6.922;2022-12-19T17:38:43;6.60;99.90
5009;DHT22;2523;51.058;6.922;2022-12-19T17:41:13;6.50;99.90
5009;DHT22;2523;51.058;6.922;2022-12-19T17:43:39;6.60;99.90
5009;DHT22;2523;51.058;6.922;2022-12-19T17:46:16;6.60;99.90
5009;DHT22;2523;51.058;6.922;2022-12-19T17:48:43;6.60;99.90
5009;DHT22;2523;51.058;6.922;2022-12-19T17:51:10;6.70;99.90
5009;DHT22;2523;51.058;6.922;2022-12-19T17:53:37;6.70;99.90
5009;DHT22;2523;51.058;6.922;2022-12-19T17:56:02;6.70;99.90
5009;DHT22;2523;51.058;6.922;2022-12-19T17:58:28;6.60;99.90
5009;DHT22;2523;51.058;6.922;2022-12-19T18:00:55;6.70;99.90
5009;DHT22;2523;51.058;6.922;2022-12-19T18:03:24;6.70;99.90
5009;DHT22;2523;51.058;6.922;2022-12-19T18:05:52;6.60;99.90
5009;DHT22;2523;51.058;6.922;2022-12-19T18:08:25;6.70;99.90
5009;DHT22;2523;51.058;6.922;2022-12-19T18:10:52;6.80;99.90